This is the latest recevied weather packets stored in our database for station/object KD8NVS-13. If no packets are shown the sender has not sent any weather packets the latest 10 day(s).
| Time | Temp. | Humidity | Pressure | Rain* | Wind** | Luminosity | Snow |
|---|---|---|---|---|---|---|---|
| 1777506880 | 15.56° C | 71% | 1000.5 hPa | 0 mm | - | 23 W/m² | - |
| 1777506577 | 15.56° C | 72% | 1000.5 hPa | 0 mm | - | 28 W/m² | - |
| 1777506273 | 15.56° C | 73% | 1000.5 hPa | 0 mm | - | 41 W/m² | - |
| 1777505969 | 15.56° C | 75% | 1000.5 hPa | 0 mm | - | 37 W/m² | - |
| 1777505665 | 15.56° C | 76% | 1000.5 hPa | 0 mm | - | 48 W/m² | - |
| 1777505362 | 15.56° C | 78% | 1000.1 hPa | 0 mm | - | 55 W/m² | - |
| 1777505058 | 15.56° C | 80% | 1000.1 hPa | 0 mm | - | 63 W/m² | - |
| 1777504756 | 15.56° C | 79% | 999.8 hPa | 0 mm | - | 54 W/m² | - |
| 1777504453 | 15.56° C | 77% | 999.8 hPa | 0 mm | - | 43 W/m² | - |
| 1777504149 | 16.11° C | 76% | 999.8 hPa | 0 mm | - | 34 W/m² | - |
| 1777503844 | 16.11° C | 78% | 1000.1 hPa | 0 mm | - | 39 W/m² | - |
| 1777503541 | 16.11° C | 78% | 999.8 hPa | 0 mm | - | 56 W/m² | - |
| 1777503237 | 16.11° C | 77% | 999.8 hPa | 0 mm | - | 27 W/m² | - |
| 1777502934 | 16.11° C | 76% | 999.8 hPa | 0 mm | - | 30 W/m² | - |
| 1777502631 | 16.11° C | 76% | 999.8 hPa | 0 mm | - | 30 W/m² | - |
| 1777502328 | 16.11° C | 77% | 999.3 hPa | 0 mm | - | 65 W/m² | - |
| 1777502025 | 16.11° C | 77% | 999.3 hPa | 0 mm | - | 70 W/m² | - |
| 1777501722 | 16.67° C | 77% | 999.3 hPa | 0 mm | - | 73 W/m² | - |
| 1777501419 | 16.67° C | 77% | 999.3 hPa | 0 mm | - | 61 W/m² | - |
| 1777501116 | 16.11° C | 79% | 999 hPa | 0 mm | - | 197 W/m² | - |
| 1777500814 | 16.11° C | 79% | 999 hPa | 0 mm | - | 96 W/m² | - |
| 1777500512 | 16.67° C | 75% | 999 hPa | 0 mm | - | 77 W/m² | - |
| 1777500207 | 16.67° C | 73% | 999.3 hPa | 0 mm | - | 102 W/m² | - |
| 1777499905 | 16.67° C | 77% | 999 hPa | 0 mm | - | 273 W/m² | - |
| 1777499601 | 16.67° C | 77% | 999 hPa | 0 mm | - | 299 W/m² | - |
* Rain latest hour (hover to see other rain measurements)
** Current wind speed in m/s (hover to see current wind gust speed)